NHZ weather

Brunswick Executive Airport
Brunswick, Maine, United States

Public forecast

Using degrees Fahrenheit for public forecast. Weather courtesy of forecast.io.

METAR (pilot weather report)

Retrieved UTC (0 seconds ago):

TAF (pilot weather forecast)

Closest forecast is Portland International Jetport Airport, 21.8 nm (40.4 km) SW. Retrieved 2019/04/19 06:27 UTC (1 hour ago):

TAF KPWM 190524Z 1906/2006 VRB04KT 3SM -DZ BR OVC002 WS020/22035KT FM191300 21010G18KT 5SM -DZ BR OVC008 FM191500 21012G21KT 6SM BR BKN015 FM192300 20011G19KT 2SM -DZ BR OVC007